createdAt,value
2022-08-29T00:00:17.858Z,17.56
2022-08-29T00:05:27.283Z,17.50
2022-08-29T00:10:41.428Z,17.46
2022-08-29T00:15:49.749Z,17.42
2022-08-29T00:20:51.847Z,17.42
2022-08-29T00:25:53.612Z,17.36
2022-08-29T00:30:57.751Z,17.34
2022-08-29T00:36:01.869Z,17.28
2022-08-29T00:41:10.729Z,17.27
2022-08-29T00:46:38.834Z,17.27
2022-08-29T00:51:41.572Z,17.25
2022-08-29T00:56:44.006Z,17.22
2022-08-29T01:01:48.986Z,17.22
2022-08-29T01:06:51.798Z,17.22
2022-08-29T01:12:17.704Z,17.18
2022-08-29T01:17:26.229Z,17.16
2022-08-29T01:23:10.270Z,17.18
2022-08-29T01:28:18.089Z,17.16
2022-08-29T01:33:19.883Z,17.16
2022-08-29T01:38:27.776Z,17.15
2022-08-29T01:43:29.724Z,17.12
2022-08-29T01:48:33.598Z,17.09
2022-08-29T01:53:35.743Z,17.08
2022-08-29T01:58:40.735Z,17.11
2022-08-29T02:03:47.237Z,17.13
2022-08-29T02:08:50.001Z,17.13
2022-08-29T02:13:59.354Z,17.13
2022-08-29T02:19:03.417Z,17.09
2022-08-29T02:24:23.908Z,17.07
2022-08-29T02:29:37.204Z,17.11
2022-08-29T02:34:39.909Z,17.10
2022-08-29T02:39:46.197Z,17.09
2022-08-29T02:44:47.922Z,17.09
2022-08-29T02:49:49.611Z,17.08
2022-08-29T02:54:55.362Z,17.11
2022-08-29T03:00:00.165Z,17.13
2022-08-29T03:05:05.175Z,17.13
2022-08-29T03:10:09.592Z,17.13
2022-08-29T03:15:17.668Z,17.11
2022-08-29T03:20:21.355Z,17.10
2022-08-29T03:25:27.772Z,17.08
2022-08-29T03:30:35.793Z,17.04
2022-08-29T03:35:40.040Z,17.01
2022-08-29T03:40:44.371Z,16.95
2022-08-29T03:45:50.494Z,16.93
2022-08-29T03:50:56.774Z,16.86
2022-08-29T03:55:58.459Z,16.83
2022-08-29T04:01:00.947Z,16.79
2022-08-29T04:06:10.404Z,16.75
2022-08-29T04:11:18.313Z,16.69
2022-08-29T04:16:25.326Z,16.66
2022-08-29T04:21:37.290Z,16.61
2022-08-29T04:26:41.144Z,16.57
2022-08-29T04:31:48.647Z,16.65
2022-08-29T04:36:53.452Z,16.62
2022-08-29T04:41:59.414Z,16.56
2022-08-29T04:47:03.751Z,16.55
2022-08-29T04:52:08.602Z,16.52
2022-08-29T04:57:10.354Z,16.50
2022-08-29T05:02:13.792Z,16.51
2022-08-29T05:07:18.365Z,16.50
2022-08-29T05:12:22.518Z,16.50
2022-08-29T05:17:29.389Z,16.53
2022-08-29T05:22:32.286Z,16.57
2022-08-29T05:27:34.210Z,16.64
2022-08-29T05:32:46.528Z,16.76
2022-08-29T05:37:51.452Z,16.89
2022-08-29T05:42:53.975Z,17.03
2022-08-29T05:48:03.025Z,17.14
2022-08-29T05:53:12.006Z,17.21
2022-08-29T05:58:16.869Z,17.34
2022-08-29T06:03:21.001Z,17.38
2022-08-29T06:08:22.765Z,17.43
2022-08-29T06:13:28.897Z,17.45
2022-08-29T06:18:37.474Z,17.49
2022-08-29T06:23:42.413Z,17.55
2022-08-29T06:28:46.014Z,17.58
2022-08-29T06:33:50.414Z,17.62
2022-08-29T06:39:02.678Z,17.63
2022-08-29T06:44:07.048Z,17.57
2022-08-29T06:49:11.973Z,17.55
2022-08-29T06:54:15.969Z,17.55
2022-08-29T06:59:19.346Z,17.59
2022-08-29T07:04:26.732Z,17.65
2022-08-29T07:09:31.079Z,17.79
2022-08-29T07:14:32.957Z,17.98
2022-08-29T07:19:34.676Z,18.12
2022-08-29T07:24:40.981Z,18.20
2022-08-29T07:29:50.583Z,18.28
2022-08-29T07:34:56.076Z,18.27
2022-08-29T07:40:00.493Z,18.27
2022-08-29T07:45:06.914Z,18.18
2022-08-29T07:50:13.766Z,18.08
2022-08-29T07:55:15.559Z,18.01
2022-08-29T08:00:20.499Z,17.90
2022-08-29T08:05:23.305Z,17.86
2022-08-29T08:10:28.040Z,17.87
2022-08-29T08:15:34.348Z,17.97
2022-08-29T08:20:39.205Z,18.14
2022-08-29T08:25:45.814Z,18.25
2022-08-29T08:30:48.572Z,18.43
2022-08-29T08:35:50.653Z,18.65
2022-08-29T08:41:10.785Z,18.98
2022-08-29T08:46:18.155Z,19.19
2022-08-29T08:51:29.623Z,19.19
2022-08-29T08:56:35.735Z,19.07
2022-08-29T09:01:46.932Z,18.94
2022-08-29T09:07:03.549Z,18.93
2022-08-29T09:12:13.864Z,19.04
2022-08-29T09:17:20.866Z,19.13
2022-08-29T09:22:32.693Z,19.26
2022-08-29T09:27:36.561Z,19.40
2022-08-29T09:33:09.069Z,19.61
2022-08-29T09:38:21.646Z,19.81
2022-08-29T09:43:29.288Z,19.89
2022-08-29T09:48:35.310Z,19.98
2022-08-29T09:53:40.778Z,19.97
2022-08-29T09:58:42.964Z,19.95
2022-08-29T10:04:03.486Z,19.95
2022-08-29T10:09:09.350Z,20.04
2022-08-29T10:14:17.370Z,20.26
2022-08-29T10:19:26.616Z,20.48
2022-08-29T10:25:06.933Z,20.70
2022-08-29T10:30:26.682Z,20.82
2022-08-29T10:35:37.944Z,20.83
2022-08-29T10:40:43.460Z,20.88
2022-08-29T10:46:08.620Z,20.93
2022-08-29T10:51:18.428Z,21.05
2022-08-29T10:56:27.495Z,20.91
2022-08-29T11:01:38.823Z,20.74
2022-08-29T11:06:48.323Z,20.77
2022-08-29T11:12:02.016Z,21.05
2022-08-29T11:17:08.305Z,21.26
2022-08-29T11:22:21.949Z,21.60
2022-08-29T11:27:37.708Z,21.84
2022-08-29T11:32:42.549Z,21.97
2022-08-29T11:37:49.856Z,22.04
2022-08-29T11:42:52.747Z,22.41
2022-08-29T11:48:17.564Z,22.55
2022-08-29T11:53:37.553Z,22.29
2022-08-29T11:58:40.432Z,22.60
2022-08-29T12:03:45.322Z,22.53
2022-08-29T12:09:13.902Z,22.24
2022-08-29T12:14:33.164Z,22.27
2022-08-29T12:19:48.328Z,22.64
2022-08-29T12:24:57.488Z,22.63
2022-08-29T12:29:59.783Z,22.77
2022-08-29T12:35:49.443Z,23.20
2022-08-29T12:40:59.661Z,23.48
2022-08-29T12:46:03.978Z,23.87
2022-08-29T12:51:09.682Z,23.88
2022-08-29T12:56:21.993Z,23.90
2022-08-29T13:01:38.194Z,23.78
2022-08-29T13:07:01.234Z,23.88
2022-08-29T13:12:21.325Z,24.63
2022-08-29T13:17:39.886Z,24.92
2022-08-29T13:22:44.613Z,24.98
2022-08-29T13:27:48.347Z,24.90
2022-08-29T13:32:52.254Z,25.15
2022-08-29T13:38:21.753Z,26.02
2022-08-29T13:43:44.955Z,26.54
2022-08-29T13:48:58.841Z,26.27
2022-08-29T13:54:02.954Z,26.90
2022-08-29T13:59:05.145Z,26.96
2022-08-29T14:04:34.147Z,26.91
2022-08-29T14:09:34.622Z,26.91
2022-08-29T14:14:37.982Z,27.27
2022-08-29T14:19:42.683Z,27.46
2022-08-29T14:24:53.299Z,27.82
2022-08-29T14:29:55.129Z,28.31
2022-08-29T14:34:59.235Z,28.72
2022-08-29T14:40:08.032Z,28.94
2022-08-29T14:45:12.987Z,28.95
2022-08-29T14:50:17.497Z,28.99
2022-08-29T14:55:21.267Z,29.07
2022-08-29T15:00:28.653Z,28.98
2022-08-29T15:05:34.720Z,28.87
2022-08-29T15:10:36.766Z,29.28
2022-08-29T15:16:35.922Z,30.05
2022-08-29T15:21:40.010Z,30.56
2022-08-29T15:26:46.937Z,30.63
2022-08-29T15:31:57.262Z,31.18
2022-08-29T15:37:06.235Z,31.66
2022-08-29T15:42:11.283Z,31.94
2022-08-29T15:47:13.287Z,31.90
2022-08-29T15:52:22.566Z,32.09
2022-08-29T15:57:32.372Z,32.35
2022-08-29T16:02:34.239Z,31.34
2022-08-29T16:07:38.510Z,31.59
2022-08-29T16:12:40.454Z,30.15
2022-08-29T16:17:44.486Z,28.69
2022-08-29T16:22:46.393Z,27.37
2022-08-29T16:27:53.872Z,26.61
2022-08-29T16:32:56.212Z,26.07
2022-08-29T16:38:02.433Z,25.51
2022-08-29T16:43:17.155Z,25.12
2022-08-29T16:48:19.295Z,24.67
2022-08-29T16:53:23.822Z,24.35
2022-08-29T16:58:44.319Z,24.23
2022-08-29T17:03:49.435Z,24.01
2022-08-29T17:08:53.681Z,23.80
2022-08-29T17:13:55.643Z,23.63
2022-08-29T17:18:57.763Z,23.44
2022-08-29T17:24:02.300Z,23.32
2022-08-29T17:29:06.651Z,23.17
2022-08-29T17:34:11.998Z,22.96
2022-08-29T17:39:15.822Z,22.83
2022-08-29T17:44:18.142Z,22.66
2022-08-29T17:49:21.011Z,22.51
2022-08-29T17:54:23.771Z,22.41
2022-08-29T17:59:29.927Z,22.29
2022-08-29T18:04:32.928Z,22.71
2022-08-29T18:09:34.781Z,22.88
2022-08-29T18:14:39.780Z,22.79
2022-08-29T18:19:42.590Z,22.00
2022-08-29T18:24:48.497Z,21.66
2022-08-29T18:29:55.763Z,21.47
2022-08-29T18:35:00.894Z,21.32
2022-08-29T18:40:04.952Z,21.21
2022-08-29T18:45:09.530Z,21.14
2022-08-29T18:50:29.908Z,20.97
2022-08-29T18:55:32.257Z,20.88
2022-08-29T19:00:34.981Z,20.76
2022-08-29T19:05:41.928Z,20.67
2022-08-29T19:10:53.774Z,20.55
2022-08-29T19:16:05.648Z,20.37
2022-08-29T19:21:07.554Z,20.32
2022-08-29T19:26:34.437Z,20.23
2022-08-29T19:31:36.225Z,20.09
2022-08-29T19:36:43.005Z,19.98
2022-08-29T19:41:50.202Z,19.85
2022-08-29T19:46:57.407Z,19.72
2022-08-29T19:51:59.338Z,19.63
2022-08-29T19:57:01.116Z,19.49
2022-08-29T20:02:02.948Z,19.39
2022-08-29T20:07:05.532Z,19.34
2022-08-29T20:12:08.752Z,19.33
2022-08-29T20:17:15.010Z,19.22
2022-08-29T20:22:20.466Z,19.11
2022-08-29T20:27:30.298Z,19.03
2022-08-29T20:32:36.747Z,18.99
2022-08-29T20:37:38.589Z,18.91
2022-08-29T20:42:41.321Z,18.82
2022-08-29T20:47:43.082Z,18.75
2022-08-29T20:52:45.044Z,18.72
2022-08-29T20:57:46.904Z,18.72
2022-08-29T21:03:09.954Z,18.73
2022-08-29T21:08:17.709Z,18.76
2022-08-29T21:13:22.524Z,18.71
2022-08-29T21:18:24.229Z,18.70
2022-08-29T21:23:34.269Z,18.68
2022-08-29T21:28:42.439Z,18.61
2022-08-29T21:33:52.718Z,18.58
2022-08-29T21:38:59.815Z,18.54
2022-08-29T21:44:06.101Z,18.52
2022-08-29T21:49:17.033Z,18.48
2022-08-29T21:54:21.769Z,18.45
2022-08-29T21:59:27.811Z,18.41
2022-08-29T22:04:32.833Z,18.37
2022-08-29T22:09:34.879Z,18.31
2022-08-29T22:14:54.982Z,18.28
2022-08-29T22:19:56.705Z,18.26
2022-08-29T22:25:04.927Z,18.22
2022-08-29T22:30:10.833Z,18.20
2022-08-29T22:35:15.886Z,18.17
2022-08-29T22:40:19.993Z,18.10
2022-08-29T22:45:27.143Z,18.07
2022-08-29T22:50:33.390Z,18.02
2022-08-29T22:55:39.239Z,17.99
2022-08-29T23:00:41.965Z,17.92
2022-08-29T23:05:44.507Z,17.90
2022-08-29T23:10:49.321Z,17.88
2022-08-29T23:15:53.584Z,17.83
2022-08-29T23:21:01.123Z,17.78
2022-08-29T23:26:08.493Z,17.75
2022-08-29T23:31:14.230Z,17.67
2022-08-29T23:36:25.040Z,17.64
2022-08-29T23:41:26.892Z,17.60
2022-08-29T23:46:33.402Z,17.58
2022-08-29T23:51:35.330Z,17.55
2022-08-29T23:56:37.836Z,17.52
